sensor_id;sensor_type;location;lat;lon;timestamp;pressure;altitude;pressure_sealevel;temperature
75428;BMP280;64008;55.612;37.698;2023-02-28T00:00:23;100104.72;;;24.45
75428;BMP280;64008;55.612;37.698;2023-02-28T00:02:49;100101.06;;;24.41
75428;BMP280;64008;55.612;37.698;2023-02-28T00:05:18;100102.94;;;24.32
75428;BMP280;64008;55.612;37.698;2023-02-28T00:07:43;100104.22;;;24.26
75428;BMP280;64008;55.612;37.698;2023-02-28T00:10:11;100099.44;;;24.23
75428;BMP280;64008;55.612;37.698;2023-02-28T00:12:37;100086.72;;;24.15
75428;BMP280;64008;55.612;37.698;2023-02-28T00:15:08;100083.09;;;24.19
75428;BMP280;64008;55.612;37.698;2023-02-28T00:17:34;100083.88;;;24.20
75428;BMP280;64008;55.612;37.698;2023-02-28T00:19:59;100081.94;;;24.20
75428;BMP280;64008;55.612;37.698;2023-02-28T00:22:29;100092.13;;;24.15
75428;BMP280;64008;55.612;37.698;2023-02-28T00:24:55;100083.38;;;24.18
75428;BMP280;64008;55.612;37.698;2023-02-28T00:27:20;100078.78;;;24.18
75428;BMP280;64008;55.612;37.698;2023-02-28T00:29:46;100081.00;;;24.25
75428;BMP280;64008;55.612;37.698;2023-02-28T00:32:12;100073.66;;;24.17
75428;BMP280;64008;55.612;37.698;2023-02-28T00:34:38;100062.72;;;24.22
75428;BMP280;64008;55.612;37.698;2023-02-28T00:37:08;100052.75;;;24.22
75428;BMP280;64008;55.612;37.698;2023-02-28T00:39:36;100069.75;;;24.23
75428;BMP280;64008;55.612;37.698;2023-02-28T00:42:03;100066.06;;;24.27
75428;BMP280;64008;55.612;37.698;2023-02-28T00:44:30;100057.81;;;24.24
75428;BMP280;64008;55.612;37.698;2023-02-28T00:46:55;100058.72;;;24.11
75428;BMP280;64008;55.612;37.698;2023-02-28T00:49:21;100073.06;;;24.11
75428;BMP280;64008;55.612;37.698;2023-02-28T00:51:47;100057.13;;;24.01
75428;BMP280;64008;55.612;37.698;2023-02-28T00:54:13;100043.97;;;24.17
75428;BMP280;64008;55.612;37.698;2023-02-28T00:56:38;100037.31;;;24.14
75428;BMP280;64008;55.612;37.698;2023-02-28T00:59:04;100040.34;;;24.13
75428;BMP280;64008;55.612;37.698;2023-02-28T01:01:29;100042.88;;;24.09
75428;BMP280;64008;55.612;37.698;2023-02-28T01:03:55;100032.69;;;24.06
75428;BMP280;64008;55.612;37.698;2023-02-28T01:06:20;100034.94;;;24.13
75428;BMP280;64008;55.612;37.698;2023-02-28T01:08:46;100039.84;;;24.11
75428;BMP280;64008;55.612;37.698;2023-02-28T01:11:14;100028.56;;;24.08
75428;BMP280;64008;55.612;37.698;2023-02-28T01:13:41;100031.75;;;24.11
75428;BMP280;64008;55.612;37.698;2023-02-28T01:16:07;100032.06;;;24.09
75428;BMP280;64008;55.612;37.698;2023-02-28T01:18:32;100019.03;;;23.94
75428;BMP280;64008;55.612;37.698;2023-02-28T01:20:58;100020.63;;;24.03
75428;BMP280;64008;55.612;37.698;2023-02-28T01:23:28;100025.50;;;23.84
75428;BMP280;64008;55.612;37.698;2023-02-28T01:25:53;100019.81;;;23.94
75428;BMP280;64008;55.612;37.698;2023-02-28T01:28:18;100015.34;;;23.81
75428;BMP280;64008;55.612;37.698;2023-02-28T01:30:48;100013.28;;;23.78
75428;BMP280;64008;55.612;37.698;2023-02-28T01:33:14;100002.81;;;23.85
75428;BMP280;64008;55.612;37.698;2023-02-28T01:35:40;100000.25;;;23.80
75428;BMP280;64008;55.612;37.698;2023-02-28T01:38:05;100000.88;;;23.77
75428;BMP280;64008;55.612;37.698;2023-02-28T01:40:31;100002.94;;;23.80
75428;BMP280;64008;55.612;37.698;2023-02-28T01:42:56;99975.50;;;23.86
75428;BMP280;64008;55.612;37.698;2023-02-28T01:47:50;99977.88;;;23.88
75428;BMP280;64008;55.612;37.698;2023-02-28T01:50:19;99973.44;;;23.92
75428;BMP280;64008;55.612;37.698;2023-02-28T01:52:47;99972.34;;;23.93
75428;BMP280;64008;55.612;37.698;2023-02-28T01:55:14;99966.00;;;23.98
75428;BMP280;64008;55.612;37.698;2023-02-28T01:57:46;99958.69;;;23.98
75428;BMP280;64008;55.612;37.698;2023-02-28T02:00:15;99947.09;;;23.98
75428;BMP280;64008;55.612;37.698;2023-02-28T02:02:46;99955.84;;;23.95
75428;BMP280;64008;55.612;37.698;2023-02-28T02:05:16;99928.34;;;23.93
75428;BMP280;64008;55.612;37.698;2023-02-28T02:07:44;99940.59;;;23.90
75428;BMP280;64008;55.612;37.698;2023-02-28T02:10:19;99942.19;;;24.08
75428;BMP280;64008;55.612;37.698;2023-02-28T02:18:28;99943.59;;;23.89
75428;BMP280;64008;55.612;37.698;2023-02-28T02:27:23;99915.03;;;23.96
75428;BMP280;64008;55.612;37.698;2023-02-28T02:37:36;99899.94;;;23.86
75428;BMP280;64008;55.612;37.698;2023-02-28T02:40:24;99908.53;;;23.89
75428;BMP280;64008;55.612;37.698;2023-02-28T02:45:25;99913.09;;;23.88
75428;BMP280;64008;55.612;37.698;2023-02-28T02:47:51;99906.75;;;23.84
75428;BMP280;64008;55.612;37.698;2023-02-28T02:50:22;99910.75;;;23.86
75428;BMP280;64008;55.612;37.698;2023-02-28T02:52:52;99910.28;;;23.93
75428;BMP280;64008;55.612;37.698;2023-02-28T02:55:20;99881.53;;;23.89
75428;BMP280;64008;55.612;37.698;2023-02-28T02:57:50;99886.59;;;23.99
75428;BMP280;64008;55.612;37.698;2023-02-28T03:00:20;99900.09;;;23.99
75428;BMP280;64008;55.612;37.698;2023-02-28T03:02:47;99884.69;;;23.99
75428;BMP280;64008;55.612;37.698;2023-02-28T03:05:35;99861.19;;;23.91
75428;BMP280;64008;55.612;37.698;2023-02-28T03:08:05;99853.09;;;24.00
75428;BMP280;64008;55.612;37.698;2023-02-28T03:10:44;99844.22;;;23.91
75428;BMP280;64008;55.612;37.698;2023-02-28T03:18:40;99873.75;;;23.96
75428;BMP280;64008;55.612;37.698;2023-02-28T03:26:58;99840.41;;;24.00
75428;BMP280;64008;55.612;37.698;2023-02-28T03:29:42;99825.47;;;24.03
75428;BMP280;64008;55.612;37.698;2023-02-28T03:32:21;99810.72;;;24.00
75428;BMP280;64008;55.612;37.698;2023-02-28T03:35:00;99809.59;;;23.93
75428;BMP280;64008;55.612;37.698;2023-02-28T03:37:31;99813.72;;;23.99
75428;BMP280;64008;55.612;37.698;2023-02-28T03:40:12;99808.78;;;24.01
75428;BMP280;64008;55.612;37.698;2023-02-28T03:42:41;99784.97;;;24.03
75428;BMP280;64008;55.612;37.698;2023-02-28T03:45:18;99793.72;;;23.91
75428;BMP280;64008;55.612;37.698;2023-02-28T03:47:52;99777.38;;;23.96
75428;BMP280;64008;55.612;37.698;2023-02-28T03:50:35;99798.91;;;24.14
75428;BMP280;64008;55.612;37.698;2023-02-28T03:53:09;99782.25;;;24.12
75428;BMP280;64008;55.612;37.698;2023-02-28T03:55:42;99774.31;;;24.06
75428;BMP280;64008;55.612;37.698;2023-02-28T04:00:38;99774.59;;;24.22
75428;BMP280;64008;55.612;37.698;2023-02-28T04:03:05;99759.41;;;24.09
75428;BMP280;64008;55.612;37.698;2023-02-28T04:05:31;99766.84;;;24.12
75428;BMP280;64008;55.612;37.698;2023-02-28T04:08:07;99754.63;;;24.15
75428;BMP280;64008;55.612;37.698;2023-02-28T04:10:33;99760.47;;;24.25
75428;BMP280;64008;55.612;37.698;2023-02-28T04:12:58;99777.44;;;24.26
75428;BMP280;64008;55.612;37.698;2023-02-28T04:15:24;99732.06;;;24.19
75428;BMP280;64008;55.612;37.698;2023-02-28T04:17:50;99725.81;;;24.27
75428;BMP280;64008;55.612;37.698;2023-02-28T04:20:15;99721.97;;;24.37
75428;BMP280;64008;55.612;37.698;2023-02-28T04:22:41;99759.34;;;24.26
75428;BMP280;64008;55.612;37.698;2023-02-28T04:25:07;99728.19;;;24.29
75428;BMP280;64008;55.612;37.698;2023-02-28T04:27:33;99717.00;;;24.39
75428;BMP280;64008;55.612;37.698;2023-02-28T04:29:59;99732.06;;;24.19
75428;BMP280;64008;55.612;37.698;2023-02-28T04:32:24;99736.47;;;24.24
75428;BMP280;64008;55.612;37.698;2023-02-28T04:34:50;99719.53;;;24.15
75428;BMP280;64008;55.612;37.698;2023-02-28T04:37:15;99733.00;;;24.15
75428;BMP280;64008;55.612;37.698;2023-02-28T04:39:41;99722.06;;;24.11
75428;BMP280;64008;55.612;37.698;2023-02-28T04:42:07;99754.34;;;24.07
75428;BMP280;64008;55.612;37.698;2023-02-28T04:44:33;99726.06;;;24.05
75428;BMP280;64008;55.612;37.698;2023-02-28T04:46:59;99727.91;;;24.13
75428;BMP280;64008;55.612;37.698;2023-02-28T04:49:24;99718.34;;;24.24
75428;BMP280;64008;55.612;37.698;2023-02-28T04:51:50;99723.31;;;24.14
75428;BMP280;64008;55.612;37.698;2023-02-28T04:54:15;99725.06;;;24.18
75428;BMP280;64008;55.612;37.698;2023-02-28T04:56:41;99693.09;;;24.29
75428;BMP280;64008;55.612;37.698;2023-02-28T04:59:07;99678.84;;;24.20
75428;BMP280;64008;55.612;37.698;2023-02-28T05:01:33;99678.06;;;24.19
75428;BMP280;64008;55.612;37.698;2023-02-28T05:04:01;99669.81;;;24.16
75428;BMP280;64008;55.612;37.698;2023-02-28T05:06:28;99669.88;;;24.37
75428;BMP280;64008;55.612;37.698;2023-02-28T05:08:55;99680.44;;;24.42
75428;BMP280;64008;55.612;37.698;2023-02-28T05:11:32;99669.56;;;24.29
75428;BMP280;64008;55.612;37.698;2023-02-28T05:14:03;99686.22;;;24.31
75428;BMP280;64008;55.612;37.698;2023-02-28T05:16:30;99657.81;;;24.34
75428;BMP280;64008;55.612;37.698;2023-02-28T05:18:56;99662.94;;;24.27
75428;BMP280;64008;55.612;37.698;2023-02-28T05:23:51;99657.41;;;24.44
75428;BMP280;64008;55.612;37.698;2023-02-28T05:26:16;99650.66;;;24.29
75428;BMP280;64008;55.612;37.698;2023-02-28T05:28:42;99649.75;;;24.17
75428;BMP280;64008;55.612;37.698;2023-02-28T05:31:10;99632.72;;;24.25
75428;BMP280;64008;55.612;37.698;2023-02-28T05:33:36;99636.06;;;24.30
75428;BMP280;64008;55.612;37.698;2023-02-28T05:36:01;99619.03;;;24.09
75428;BMP280;64008;55.612;37.698;2023-02-28T05:38:27;99619.38;;;24.07
75428;BMP280;64008;55.612;37.698;2023-02-28T05:40:53;99597.75;;;24.07
75428;BMP280;64008;55.612;37.698;2023-02-28T05:43:18;99594.19;;;24.45
75428;BMP280;64008;55.612;37.698;2023-02-28T05:45:44;99599.44;;;24.42
75428;BMP280;64008;55.612;37.698;2023-02-28T05:48:09;99575.53;;;24.52
75428;BMP280;64008;55.612;37.698;2023-02-28T05:50:35;99598.91;;;24.48
75428;BMP280;64008;55.612;37.698;2023-02-28T05:53:01;99577.06;;;24.41
75428;BMP280;64008;55.612;37.698;2023-02-28T05:55:27;99587.75;;;24.08
75428;BMP280;64008;55.612;37.698;2023-02-28T05:57:52;99566.63;;;23.80
75428;BMP280;64008;55.612;37.698;2023-02-28T06:00:18;99557.84;;;24.13
75428;BMP280;64008;55.612;37.698;2023-02-28T06:02:44;99567.00;;;24.21
75428;BMP280;64008;55.612;37.698;2023-02-28T06:05:14;99557.00;;;24.42
75428;BMP280;64008;55.612;37.698;2023-02-28T06:07:40;99553.56;;;24.33
75428;BMP280;64008;55.612;37.698;2023-02-28T06:10:07;99550.41;;;24.31
75428;BMP280;64008;55.612;37.698;2023-02-28T06:12:32;99534.22;;;24.52
75428;BMP280;64008;55.612;37.698;2023-02-28T06:14:58;99568.38;;;16.78
75428;BMP280;64008;55.612;37.698;2023-02-28T06:17:23;99594.75;;;14.00
75428;BMP280;64008;55.612;37.698;2023-02-28T06:19:49;99556.13;;;12.28
75428;BMP280;64008;55.612;37.698;2023-02-28T06:22:14;99551.72;;;10.61
75428;BMP280;64008;55.612;37.698;2023-02-28T06:24:40;99525.78;;;11.68
75428;BMP280;64008;55.612;37.698;2023-02-28T06:27:05;99495.50;;;17.27
75428;BMP280;64008;55.612;37.698;2023-02-28T06:29:32;99510.09;;;20.92
75428;BMP280;64008;55.612;37.698;2023-02-28T06:31:58;99497.59;;;21.90
75428;BMP280;64008;55.612;37.698;2023-02-28T06:34:23;99491.47;;;22.59
75428;BMP280;64008;55.612;37.698;2023-02-28T06:36:51;99502.53;;;23.01
75428;BMP280;64008;55.612;37.698;2023-02-28T06:39:17;99485.78;;;23.54
75428;BMP280;64008;55.612;37.698;2023-02-28T06:41:43;99503.88;;;23.54
75428;BMP280;64008;55.612;37.698;2023-02-28T06:44:17;99486.34;;;23.77
75428;BMP280;64008;55.612;37.698;2023-02-28T06:46:44;99466.91;;;23.84
75428;BMP280;64008;55.612;37.698;2023-02-28T06:49:10;99456.72;;;23.90
75428;BMP280;64008;55.612;37.698;2023-02-28T06:51:38;99462.81;;;24.07
75428;BMP280;64008;55.612;37.698;2023-02-28T06:54:04;99469.31;;;24.06
75428;BMP280;64008;55.612;37.698;2023-02-28T06:56:30;99448.47;;;24.28
75428;BMP280;64008;55.612;37.698;2023-02-28T06:58:56;99467.47;;;24.19
75428;BMP280;64008;55.612;37.698;2023-02-28T07:01:22;99451.00;;;24.12
75428;BMP280;64008;55.612;37.698;2023-02-28T07:03:49;99441.88;;;24.04
75428;BMP280;64008;55.612;37.698;2023-02-28T07:06:24;99426.19;;;24.31
75428;BMP280;64008;55.612;37.698;2023-02-28T07:08:53;99430.78;;;24.18
75428;BMP280;64008;55.612;37.698;2023-02-28T07:11:21;99438.72;;;24.36
75428;BMP280;64008;55.612;37.698;2023-02-28T07:13:48;99417.34;;;24.30
75428;BMP280;64008;55.612;37.698;2023-02-28T07:16:14;99396.66;;;24.47
75428;BMP280;64008;55.612;37.698;2023-02-28T07:18:39;99396.59;;;24.92
75428;BMP280;64008;55.612;37.698;2023-02-28T07:21:07;99420.50;;;24.90
75428;BMP280;64008;55.612;37.698;2023-02-28T07:23:33;99387.47;;;24.48
75428;BMP280;64008;55.612;37.698;2023-02-28T07:25:58;99389.91;;;24.53
75428;BMP280;64008;55.612;37.698;2023-02-28T07:28:24;99378.75;;;24.42
75428;BMP280;64008;55.612;37.698;2023-02-28T07:30:50;99377.59;;;24.31
75428;BMP280;64008;55.612;37.698;2023-02-28T07:33:16;99357.25;;;24.46
75428;BMP280;64008;55.612;37.698;2023-02-28T07:35:41;99370.69;;;25.04
75428;BMP280;64008;55.612;37.698;2023-02-28T07:38:07;99364.78;;;25.51
75428;BMP280;64008;55.612;37.698;2023-02-28T07:40:34;99356.16;;;25.20
75428;BMP280;64008;55.612;37.698;2023-02-28T07:43:00;99380.97;;;25.63
75428;BMP280;64008;55.612;37.698;2023-02-28T07:45:27;99357.22;;;25.44
75428;BMP280;64008;55.612;37.698;2023-02-28T07:47:54;99384.91;;;24.88
75428;BMP280;64008;55.612;37.698;2023-02-28T07:50:20;99344.75;;;24.29
75428;BMP280;64008;55.612;37.698;2023-02-28T07:52:45;99352.25;;;24.11
75428;BMP280;64008;55.612;37.698;2023-02-28T07:55:11;99356.81;;;23.98
75428;BMP280;64008;55.612;37.698;2023-02-28T07:57:37;99328.50;;;24.04
75428;BMP280;64008;55.612;37.698;2023-02-28T08:00:04;99343.84;;;24.13
75428;BMP280;64008;55.612;37.698;2023-02-28T08:02:30;99320.22;;;23.89
75428;BMP280;64008;55.612;37.698;2023-02-28T08:04:55;99311.22;;;23.84
75428;BMP280;64008;55.612;37.698;2023-02-28T08:07:21;99328.59;;;23.75
75428;BMP280;64008;55.612;37.698;2023-02-28T08:09:46;99320.50;;;23.75
75428;BMP280;64008;55.612;37.698;2023-02-28T08:12:12;99325.69;;;23.80
75428;BMP280;64008;55.612;37.698;2023-02-28T08:14:38;99319.41;;;23.76
75428;BMP280;64008;55.612;37.698;2023-02-28T08:17:05;99318.25;;;23.77
75428;BMP280;64008;55.612;37.698;2023-02-28T08:19:31;99303.94;;;23.85
75428;BMP280;64008;55.612;37.698;2023-02-28T08:21:57;99320.81;;;23.94
75428;BMP280;64008;55.612;37.698;2023-02-28T08:24:22;99308.19;;;23.86
75428;BMP280;64008;55.612;37.698;2023-02-28T08:26:48;99291.34;;;23.89
75428;BMP280;64008;55.612;37.698;2023-02-28T08:29:15;99285.72;;;23.94
75428;BMP280;64008;55.612;37.698;2023-02-28T08:31:41;99299.63;;;23.84
75428;BMP280;64008;55.612;37.698;2023-02-28T08:34:08;99273.91;;;23.86
75428;BMP280;64008;55.612;37.698;2023-02-28T08:36:34;99284.16;;;23.93
75428;BMP280;64008;55.612;37.698;2023-02-28T08:39:00;99247.28;;;23.97
75428;BMP280;64008;55.612;37.698;2023-02-28T08:41:26;99246.16;;;23.98
75428;BMP280;64008;55.612;37.698;2023-02-28T08:43:52;99263.28;;;24.15
75428;BMP280;64008;55.612;37.698;2023-02-28T08:46:19;99226.38;;;24.06
75428;BMP280;64008;55.612;37.698;2023-02-28T08:48:44;99233.16;;;24.13
75428;BMP280;64008;55.612;37.698;2023-02-28T08:51:14;99237.06;;;24.15
75428;BMP280;64008;55.612;37.698;2023-02-28T08:53:41;99220.53;;;24.04
75428;BMP280;64008;55.612;37.698;2023-02-28T08:56:10;99306.59;;;24.18
75428;BMP280;64008;55.612;37.698;2023-02-28T08:58:36;99305.13;;;24.08
75428;BMP280;64008;55.612;37.698;2023-02-28T09:03:37;99278.91;;;24.09
75428;BMP280;64008;55.612;37.698;2023-02-28T09:06:03;99280.34;;;24.06
75428;BMP280;64008;55.612;37.698;2023-02-28T09:08:29;99292.16;;;24.02
75428;BMP280;64008;55.612;37.698;2023-02-28T09:10:55;99299.47;;;24.01
75428;BMP280;64008;55.612;37.698;2023-02-28T09:13:26;99293.53;;;23.75
75428;BMP280;64008;55.612;37.698;2023-02-28T09:15:52;99331.19;;;23.71
75428;BMP280;64008;55.612;37.698;2023-02-28T09:18:19;99276.47;;;23.83
75428;BMP280;64008;55.612;37.698;2023-02-28T09:20:44;99250.47;;;23.78
75428;BMP280;64008;55.612;37.698;2023-02-28T09:23:11;99227.03;;;23.58
75428;BMP280;64008;55.612;37.698;2023-02-28T09:25:38;99224.97;;;23.76
75428;BMP280;64008;55.612;37.698;2023-02-28T09:28:09;99224.31;;;23.79
75428;BMP280;64008;55.612;37.698;2023-02-28T09:30:35;99236.00;;;23.83
75428;BMP280;64008;55.612;37.698;2023-02-28T09:33:00;99220.69;;;23.75
75428;BMP280;64008;55.612;37.698;2023-02-28T09:35:26;99228.75;;;23.62
75428;BMP280;64008;55.612;37.698;2023-02-28T09:37:52;99218.00;;;23.75
75428;BMP280;64008;55.612;37.698;2023-02-28T09:40:19;99190.50;;;24.18
75428;BMP280;64008;55.612;37.698;2023-02-28T09:42:48;99216.47;;;23.98
75428;BMP280;64008;55.612;37.698;2023-02-28T09:45:36;99212.56;;;24.08
75428;BMP280;64008;55.612;37.698;2023-02-28T09:48:19;99209.09;;;24.20
75428;BMP280;64008;55.612;37.698;2023-02-28T09:53:49;99218.06;;;24.61
75428;BMP280;64008;55.612;37.698;2023-02-28T09:56:21;99216.13;;;24.49
75428;BMP280;64008;55.612;37.698;2023-02-28T10:01:54;99222.09;;;24.79
75428;BMP280;64008;55.612;37.698;2023-02-28T10:12:59;99258.44;;;24.20
75428;BMP280;64008;55.612;37.698;2023-02-28T10:15:28;99186.97;;;24.67
75428;BMP280;64008;55.612;37.698;2023-02-28T10:17:58;99176.13;;;24.26
75428;BMP280;64008;55.612;37.698;2023-02-28T10:20:26;99165.69;;;24.13
75428;BMP280;64008;55.612;37.698;2023-02-28T10:25:39;99165.19;;;24.47
75428;BMP280;64008;55.612;37.698;2023-02-28T10:30:33;99139.66;;;21.22
75428;BMP280;64008;55.612;37.698;2023-02-28T10:32:59;99167.16;;;20.35
75428;BMP280;64008;55.612;37.698;2023-02-28T10:35:25;99130.47;;;19.59
75428;BMP280;64008;55.612;37.698;2023-02-28T10:37:59;99121.28;;;18.79
75428;BMP280;64008;55.612;37.698;2023-02-28T10:40:37;99157.34;;;18.68
75428;BMP280;64008;55.612;37.698;2023-02-28T10:43:04;99150.31;;;19.22
75428;BMP280;64008;55.612;37.698;2023-02-28T10:45:31;99151.47;;;18.79
75428;BMP280;64008;55.612;37.698;2023-02-28T10:56:02;99131.47;;;18.77
75428;BMP280;64008;55.612;37.698;2023-02-28T10:58:34;99149.69;;;18.33
75428;BMP280;64008;55.612;37.698;2023-02-28T11:01:13;99110.75;;;18.13
75428;BMP280;64008;55.612;37.698;2023-02-28T11:03:39;99162.19;;;18.52
75428;BMP280;64008;55.612;37.698;2023-02-28T11:06:07;99142.09;;;17.94
75428;BMP280;64008;55.612;37.698;2023-02-28T11:08:33;99109.97;;;18.13
75428;BMP280;64008;55.612;37.698;2023-02-28T11:11:04;99103.97;;;18.85
75428;BMP280;64008;55.612;37.698;2023-02-28T11:13:35;99130.78;;;18.57
75428;BMP280;64008;55.612;37.698;2023-02-28T11:16:05;99115.34;;;18.54
75428;BMP280;64008;55.612;37.698;2023-02-28T11:18:40;99119.50;;;18.47
75428;BMP280;64008;55.612;37.698;2023-02-28T11:21:07;99109.09;;;18.31
75428;BMP280;64008;55.612;37.698;2023-02-28T11:23:35;99094.41;;;18.29
75428;BMP280;64008;55.612;37.698;2023-02-28T11:26:04;99070.16;;;17.98
75428;BMP280;64008;55.612;37.698;2023-02-28T11:28:40;99071.19;;;17.50
75428;BMP280;64008;55.612;37.698;2023-02-28T11:33:49;99072.75;;;17.84
75428;BMP280;64008;55.612;37.698;2023-02-28T11:38:47;99059.59;;;18.34
75428;BMP280;64008;55.612;37.698;2023-02-28T11:46:47;99076.09;;;18.08
75428;BMP280;64008;55.612;37.698;2023-02-28T12:08:58;99077.94;;;17.94
75428;BMP280;64008;55.612;37.698;2023-02-28T12:11:48;99043.00;;;18.32
75428;BMP280;64008;55.612;37.698;2023-02-28T12:14:40;99033.63;;;18.21
75428;BMP280;64008;55.612;37.698;2023-02-28T12:25:42;99027.81;;;17.25
75428;BMP280;64008;55.612;37.698;2023-02-28T12:28:16;99029.03;;;16.95
75428;BMP280;64008;55.612;37.698;2023-02-28T12:30:56;99047.88;;;17.04
75428;BMP280;64008;55.612;37.698;2023-02-28T12:33:25;99061.81;;;16.77
75428;BMP280;64008;55.612;37.698;2023-02-28T12:35:57;99072.31;;;17.11
75428;BMP280;64008;55.612;37.698;2023-02-28T12:38:42;99023.66;;;17.00
75428;BMP280;64008;55.612;37.698;2023-02-28T12:41:15;99025.47;;;16.86
75428;BMP280;64008;55.612;37.698;2023-02-28T12:43:48;99040.94;;;16.84
75428;BMP280;64008;55.612;37.698;2023-02-28T12:46:27;99017.16;;;16.87
75428;BMP280;64008;55.612;37.698;2023-02-28T12:48:59;99010.88;;;16.78
75428;BMP280;64008;55.612;37.698;2023-02-28T12:51:26;98986.59;;;16.80
75428;BMP280;64008;55.612;37.698;2023-02-28T12:54:17;98990.19;;;16.70
75428;BMP280;64008;55.612;37.698;2023-02-28T12:59:23;98975.59;;;16.62
75428;BMP280;64008;55.612;37.698;2023-02-28T13:10:19;98996.66;;;17.02
75428;BMP280;64008;55.612;37.698;2023-02-28T13:12:54;98951.09;;;16.79
75428;BMP280;64008;55.612;37.698;2023-02-28T13:15:26;98969.66;;;16.71
75428;BMP280;64008;55.612;37.698;2023-02-28T13:17:56;98971.94;;;16.96
75428;BMP280;64008;55.612;37.698;2023-02-28T13:20:26;98934.88;;;16.76
75428;BMP280;64008;55.612;37.698;2023-02-28T13:22:54;98945.69;;;16.47
75428;BMP280;64008;55.612;37.698;2023-02-28T13:31:18;98943.16;;;16.93
75428;BMP280;64008;55.612;37.698;2023-02-28T13:34:05;98924.72;;;16.78
75428;BMP280;64008;55.612;37.698;2023-02-28T13:36:32;98926.59;;;16.58
75428;BMP280;64008;55.612;37.698;2023-02-28T13:42:31;98938.31;;;16.95
75428;BMP280;64008;55.612;37.698;2023-02-28T13:47:53;98917.38;;;16.51
75428;BMP280;64008;55.612;37.698;2023-02-28T14:04:21;98894.00;;;16.61
75428;BMP280;64008;55.612;37.698;2023-02-28T14:06:54;98907.72;;;16.55
75428;BMP280;64008;55.612;37.698;2023-02-28T14:09:35;98883.22;;;16.72
75428;BMP280;64008;55.612;37.698;2023-02-28T14:15:36;98884.13;;;17.14
75428;BMP280;64008;55.612;37.698;2023-02-28T14:18:11;98878.47;;;16.69
75428;BMP280;64008;55.612;37.698;2023-02-28T14:20:40;98889.50;;;16.43
75428;BMP280;64008;55.612;37.698;2023-02-28T14:31:13;98878.81;;;16.62
75428;BMP280;64008;55.612;37.698;2023-02-28T14:36:39;98876.16;;;17.41
75428;BMP280;64008;55.612;37.698;2023-02-28T14:39:12;98892.78;;;16.73
75428;BMP280;64008;55.612;37.698;2023-02-28T14:41:40;98892.72;;;16.78
75428;BMP280;64008;55.612;37.698;2023-02-28T14:44:23;98853.22;;;16.23
75428;BMP280;64008;55.612;37.698;2023-02-28T14:46:57;98869.44;;;16.45
75428;BMP280;64008;55.612;37.698;2023-02-28T14:52:02;98850.91;;;16.21
75428;BMP280;64008;55.612;37.698;2023-02-28T14:54:28;98859.16;;;16.58
75428;BMP280;64008;55.612;37.698;2023-02-28T14:56:54;98853.41;;;16.32
75428;BMP280;64008;55.612;37.698;2023-02-28T14:59:38;98857.09;;;16.17
75428;BMP280;64008;55.612;37.698;2023-02-28T15:02:36;98843.16;;;16.01
75428;BMP280;64008;55.612;37.698;2023-02-28T15:07:46;98840.50;;;16.39
75428;BMP280;64008;55.612;37.698;2023-02-28T15:12:56;98830.22;;;16.32
75428;BMP280;64008;55.612;37.698;2023-02-28T15:15:33;98856.72;;;16.23
75428;BMP280;64008;55.612;37.698;2023-02-28T15:18:02;98841.97;;;16.31
75428;BMP280;64008;55.612;37.698;2023-02-28T15:20:29;98822.66;;;16.20
75428;BMP280;64008;55.612;37.698;2023-02-28T15:22:56;98860.25;;;16.38
75428;BMP280;64008;55.612;37.698;2023-02-28T15:25:22;98823.00;;;16.14
75428;BMP280;64008;55.612;37.698;2023-02-28T15:27:53;98840.09;;;16.32
75428;BMP280;64008;55.612;37.698;2023-02-28T15:30:25;98844.84;;;16.16
75428;BMP280;64008;55.612;37.698;2023-02-28T15:33:17;98837.28;;;16.04
75428;BMP280;64008;55.612;37.698;2023-02-28T15:35:44;98823.44;;;16.21
75428;BMP280;64008;55.612;37.698;2023-02-28T15:38:22;98822.44;;;16.17
75428;BMP280;64008;55.612;37.698;2023-02-28T15:40:54;98827.19;;;16.39
75428;BMP280;64008;55.612;37.698;2023-02-28T15:45:59;98824.75;;;16.42
75428;BMP280;64008;55.612;37.698;2023-02-28T15:48:31;98807.06;;;16.65
75428;BMP280;64008;55.612;37.698;2023-02-28T15:54:00;98806.38;;;16.41
75428;BMP280;64008;55.612;37.698;2023-02-28T15:56:29;98810.59;;;16.23
75428;BMP280;64008;55.612;37.698;2023-02-28T15:58:58;98811.53;;;16.13
75428;BMP280;64008;55.612;37.698;2023-02-28T16:01:29;98817.31;;;16.72
75428;BMP280;64008;55.612;37.698;2023-02-28T16:04:02;98806.88;;;16.57
75428;BMP280;64008;55.612;37.698;2023-02-28T16:08:59;98808.22;;;16.59
75428;BMP280;64008;55.612;37.698;2023-02-28T16:11:25;98810.31;;;16.43
75428;BMP280;64008;55.612;37.698;2023-02-28T16:13:52;98796.03;;;16.53
75428;BMP280;64008;55.612;37.698;2023-02-28T16:16:18;98809.22;;;16.44
75428;BMP280;64008;55.612;37.698;2023-02-28T16:18:44;98810.69;;;16.37
75428;BMP280;64008;55.612;37.698;2023-02-28T16:21:10;98795.19;;;16.39
75428;BMP280;64008;55.612;37.698;2023-02-28T16:23:35;98829.53;;;16.59
75428;BMP280;64008;55.612;37.698;2023-02-28T16:26:03;98798.22;;;16.13
75428;BMP280;64008;55.612;37.698;2023-02-28T16:28:33;98801.19;;;16.12
75428;BMP280;64008;55.612;37.698;2023-02-28T16:31:00;98793.38;;;16.53
75428;BMP280;64008;55.612;37.698;2023-02-28T16:33:28;98802.88;;;16.40
75428;BMP280;64008;55.612;37.698;2023-02-28T16:35:54;98801.53;;;16.43
75428;BMP280;64008;55.612;37.698;2023-02-28T16:38:19;98783.84;;;16.47
75428;BMP280;64008;55.612;37.698;2023-02-28T16:40:46;98802.75;;;16.51
75428;BMP280;64008;55.612;37.698;2023-02-28T16:43:20;98791.63;;;16.62
75428;BMP280;64008;55.612;37.698;2023-02-28T16:45:47;98799.53;;;16.54
75428;BMP280;64008;55.612;37.698;2023-02-28T16:48:15;98793.41;;;16.67
75428;BMP280;64008;55.612;37.698;2023-02-28T16:50:42;98781.03;;;16.90
75428;BMP280;64008;55.612;37.698;2023-02-28T16:53:08;98780.81;;;16.86
75428;BMP280;64008;55.612;37.698;2023-02-28T16:55:35;98777.94;;;16.83
75428;BMP280;64008;55.612;37.698;2023-02-28T16:58:01;98769.28;;;16.58
75428;BMP280;64008;55.612;37.698;2023-02-28T17:00:29;98781.09;;;16.38